地図

経路データ

SID SEASON NUMBER BASIN SUBBASIN NAME ISO_TIME NATURE LAT LON WMO_WIND WMO_PRES WMO_AGENCY TRACK_TYPE DIST2LAND LANDFALL IFLAG USA_AGENCY USA_ATCF_ID USA_LAT USA_LON USA_RECORD USA_STATUS USA_WIND USA_PRES USA_SSHS USA_R34_NE USA_R34_SE USA_R34_SW USA_R34_NW USA_R50_NE USA_R50_SE USA_R50_SW USA_R50_NW USA_R64_NE USA_R64_SE USA_R64_SW USA_R64_NW USA_POCI USA_ROCI USA_RMW USA_EYE TOKYO_LAT TOKYO_LON TOKYO_GRADE TOKYO_WIND TOKYO_PRES TOKYO_R50_DIR TOKYO_R50_LONG TOKYO_R50_SHORT TOKYO_R30_DIR TOKYO_R30_LONG TOKYO_R30_SHORT TOKYO_LAND CMA_LAT CMA_LON CMA_CAT CMA_WIND CMA_PRES HKO_LAT HKO_LON HKO_CAT HKO_WIND HKO_PRES NEWDELHI_LAT NEWDELHI_LON NEWDELHI_GRADE NEWDELHI_WIND NEWDELHI_PRES NEWDELHI_CI NEWDELHI_DP NEWDELHI_POCI REUNION_LAT REUNION_LON REUNION_TYPE REUNION_WIND REUNION_PRES REUNION_TNUM REUNION_CI REUNION_RMW REUNION_R34_NE REUNION_R34_SE REUNION_R34_SW REUNION_R34_NW REUNION_R50_NE REUNION_R50_SE REUNION_R50_SW REUNION_R50_NW REUNION_R64_NE REUNION_R64_SE REUNION_R64_SW REUNION_R64_NW BOM_LAT BOM_LON BOM_TYPE BOM_WIND BOM_PRES BOM_TNUM BOM_CI BOM_RMW BOM_R34_NE BOM_R34_SE BOM_R34_SW BOM_R34_NW BOM_R50_NE BOM_R50_SE BOM_R50_SW BOM_R50_NW BOM_R64_NE BOM_R64_SE BOM_R64_SW BOM_R64_NW BOM_ROCI BOM_POCI BOM_EYE BOM_POS_METHOD BOM_PRES_METHOD NADI_LAT NADI_LON NADI_CAT NADI_WIND NADI_PRES WELLINGTON_LAT WELLINGTON_LON WELLINGTON_WIND WELLINGTON_PRES DS824_LAT DS824_LON DS824_STAGE DS824_WIND DS824_PRES TD9636_LAT TD9636_LON TD9636_STAGE TD9636_WIND TD9636_PRES TD9635_LAT TD9635_LON TD9635_WIND TD9635_PRES TD9635_ROCI NEUMANN_LAT NEUMANN_LON NEUMANN_CLASS NEUMANN_WIND NEUMANN_PRES MLC_LAT MLC_LON MLC_CLASS MLC_WIND MLC_PRES USA_GUST BOM_GUST BOM_GUST_PER REUNION_GUST REUNION_GUST_PER USA_SEAHGT USA_SEARAD_NE USA_SEARAD_SE USA_SEARAD_SW USA_SEARAD_NW STORM_SPEED STORM_DIR
1996353N05151 1996 122 WP MM FERN 1996-12-17 12:00:00 NR 5.20000 151.300 main 886 885 O_____________ jtwc_wp WP421996 5.20000 151.300 20 -1 6 293
1996353N05151 1996 122 WP MM FERN 1996-12-17 15:00:00 NR 5.31004 151.043 main 896 896 P_____________ WP421996 5.31004 151.043 20 -1 5 292
1996353N05151 1996 122 WP MM FERN 1996-12-17 18:00:00 NR 5.40000 150.800 main 907 907 O_____________ jtwc_wp WP421996 5.40000 150.800 20 -1 5 287
1996353N05151 1996 122 WP MM FERN 1996-12-17 21:00:00 NR 5.45746 150.572 main 919 910 P_____________ WP421996 5.45746 150.572 20 -1 5 281
1996353N05151 1996 122 WP MM FERN 1996-12-18 00:00:00 NR 5.50000 150.300 main 910 895 O_____________ jtwc_wp WP421996 5.50000 150.300 20 -1 7 278
1996353N05151 1996 122 WP MM FERN 1996-12-18 03:00:00 NR 5.55003 149.915 main 906 893 P_____________ WP421996 5.55003 149.915 20 -1 8 277
1996353N05151 1996 122 WP MM FERN 1996-12-18 06:00:00 NR 5.60000 149.500 main 893 885 O_____________ jtwc_wp WP421996 5.60000 149.500 20 -1 8 277
1996353N05151 1996 122 WP MM FERN 1996-12-18 09:00:00 NR 5.64247 149.142 main 883 883 P_____________ WP421996 5.64247 149.142 20 -1 7 278
1996353N05151 1996 122 WP MM FERN 1996-12-18 12:00:00 NR 5.70000 148.800 main 887 884 O_____________ jtwc_wp WP421996 5.70000 148.800 20 -1 7 282
1996353N05151 1996 122 WP MM FERN 1996-12-18 15:00:00 NR 5.79248 148.450 main 893 890 P_____________ WP421996 5.79248 148.450 20 -1 7 286
1996353N05151 1996 122 WP MM FERN 1996-12-18 18:00:00 NR 5.90000 148.100 main 899 898 O_____________ jtwc_wp WP421996 5.90000 148.100 20 -1 7 287
1996353N05151 1996 122 WP MM FERN 1996-12-18 21:00:00 NR 5.99998 147.750 main 908 907 P_____________ WP421996 5.99998 147.750 20 -1 7 286
1996353N05151 1996 122 WP MM FERN 1996-12-19 00:00:00 NR 6.10000 147.400 main 918 918 O_____________ jtwc_wp WP421996 6.10000 147.400 20 -1 7 286
1996353N05151 1996 122 WP MM FERN 1996-12-19 03:00:00 NR 6.19998 147.050 main 930 930 P_____________ WP421996 6.19998 147.050 20 -1 7 286
1996353N05151 1996 122 WP MM FERN 1996-12-19 06:00:00 NR 6.30000 146.700 main 941 941 O_____________ jtwc_wp WP421996 6.30000 146.700 20 -1 7 285
1996353N05151 1996 122 WP MM FERN 1996-12-19 09:00:00 NR 6.39249 146.342 main 953 953 P_____________ WP421996 6.39249 146.342 22 -1 7 286
1996353N05151 1996 122 WP MM FERN 1996-12-19 12:00:00 NR 6.50000 146.000 main 966 966 O_____________ jtwc_wp WP421996 6.50000 146.000 25 -1 7 290
1996353N05151 1996 122 WP MM FERN 1996-12-19 15:00:00 NR 6.61988 145.730 main 980 980 P_____________ WP421996 6.61988 145.730 25 -1 7 297
1996353N05151 1996 122 WP MM FERN 1996-12-19 18:00:00 NR 6.80000 145.400 main 1006 1006 O_____________ jtwc_wp WP421996 6.80000 145.400 25 -1 10 300
1996353N05151 1996 122 WP MM FERN 1996-12-19 21:00:00 NR 7.11512 144.865 main 1048 1048 P_____________ WP421996 7.11512 144.865 25 -1 12 299
1996353N05151 1996 122 WP MM FERN 1996-12-20 00:00:00 NR 7.40000 144.300 main 1094 1094 O_____________ jtwc_wp WP421996 7.40000 144.300 25 -1 10 291
1996353N05151 1996 122 WP MM FERN 1996-12-20 03:00:00 NR 7.48737 143.885 main 1116 1116 P_____________ WP421996 7.48737 143.885 25 -1 8 277
1996353N05151 1996 122 WP MM FERN 1996-12-20 06:00:00 NR 7.50000 143.500 main 1129 1129 O_____________ jtwc_wp WP421996 7.50000 143.500 25 -1 9 274
1996353N05151 1996 122 WP MM FERN 1996-12-20 09:00:00 NR 7.54257 143.020 main 1146 1138 P_____________ WP421996 7.54257 143.020 25 -1 9 276
1996353N05151 1996 122 WP MM FERN 1996-12-20 12:00:00 NR 7.60000 142.600 main 1138 1134 O_____________ jtwc_wp WP421996 7.60000 142.600 25 -1 7 283
1996353N05151 1996 122 WP MM FERN 1996-12-20 15:00:00 NR 7.69993 142.348 main 1137 1137 P_____________ WP421996 7.69993 142.348 25 -1 4 297
1996353N05151 1996 122 WP MM FERN 1996-12-20 18:00:00 NR 7.80000 142.200 main 1143 1138 O_____________ jtwc_wp WP421996 7.80000 142.200 25 -1 3 301
1996353N05151 1996 122 WP MM FERN 1996-12-20 21:00:00 NR 7.85748 142.085 main 1149 1118 P_____________ WP421996 7.85748 142.085 25 -1 6 274
1996353N05151 1996 122 WP MM FERN 1996-12-21 00:00:00 TS 7.84000 141.620 1004 tokyo main 1118 1118 OO____________ jtwc_wp WP421996 7.90000 142.000 25 -1 7.60000 140.100 2 1004 0 0 0 8 277
1996353N05151 1996 122 WP MM FERN 1996-12-21 03:00:00 TS 7.95583 141.310 main 1129 1126 PP____________ WP421996 7.94250 141.900 27 -1 7.98250 140.130 2 1003 0 0 6 300
1996353N05151 1996 122 WP MM FERN 1996-12-21 06:00:00 TS 8.12857 141.114 1002 tokyo main 1133 1133 OO____________ jtwc_wp WP421996 8.00000 141.800 30 -1 8.30000 140.200 2 1002 0 0 0 5 320
1996353N05151 1996 122 WP MM FERN 1996-12-21 09:00:00 TS 8.30125 141.018 main 1152 1152 PP____________ WP421996 8.10000 141.700 32 -1 8.50250 140.335 2 1002 0 0 3 346
1996353N05151 1996 122 WP MM FERN 1996-12-21 12:00:00 TS 8.40000 141.050 1002 tokyo main 1165 1165 OO____________ jtwc_wp WP421996 8.20000 141.600 35 0 8.60000 140.500 2 1002 0 0 0 1 27
1996353N05151 1996 122 WP MM FERN 1996-12-21 15:00:00 TS 8.42875 141.083 main 1165 1165 PP____________ WP421996 8.25000 141.500 37 0 8.60751 140.665 2 1001 0 0 2 30
1996353N05151 1996 122 WP MM FERN 1996-12-21 18:00:00 TS 8.53333 141.133 1000 tokyo main 1176 1176 OO_O__________ jtwc_wp WP421996 8.30000 141.400 40 0 8.60000 140.800 2 1000 0 0 0 9.20000 141.400 TD 25 998 2 0
1996353N05151 1996 122 WP MM FERN 1996-12-21 21:00:00 TS 8.67100 141.107 main 1198 1198 PP_P__________ WP421996 8.40000 141.293 42 0 8.67749 140.880 2 1000 0 0 9.20003 141.190 TD 27 997 3 341
1996353N05151 1996 122 WP MM FERN 1996-12-22 00:00:00 TS 8.80000 141.036 1000 tokyo main 1206 1206 OO_O__________ jtwc_wp WP421996 8.50000 141.200 45 0 8.80000 140.900 2 1000 0 0 0 9.20000 141.000 TD 30 996 3 327
1996353N05151 1996 122 WP MM FERN 1996-12-22 03:00:00 TS 8.90249 140.952 main 1216 1214 PP_P__________ WP421996 8.55750 141.143 45 0 8.95000 140.873 2 1000 0 0 9.19998 140.842 TD 30 996 2 315
1996353N05151 1996 122 WP MM FERN 1996-12-22 06:00:00 TS 8.96667 140.867 1000 tokyo main 1224 1222 OO_O__________ jtwc_wp WP421996 8.60000 141.100 45 0 9.10000 140.800 2 1000 0 0 0 9.20000 140.700 TD 30 996 2 304
1996353N05151 1996 122 WP MM FERN 1996-12-22 09:00:00 TS 9.02166 140.772 main 1222 1219 PP_P__________ WP421996 8.64999 141.058 45 0 9.21500 140.708 2 999 0 0 9.19999 140.550 TD 32 995 2 297
1996353N05151 1996 122 WP MM FERN 1996-12-22 12:00:00 TS 9.06667 140.667 998 tokyo main 1230 1225 OO_O__________ jtwc_wp WP421996 8.70000 141.000 45 0 9.30000 140.600 2 998 0 0 0 9.20000 140.400 TS 35 994 2 291
1996353N05151 1996 122 WP MM FERN 1996-12-22 15:00:00 TS 9.10500 140.553 main 1225 1216 PP_P__________ WP421996 8.75750 140.908 42 0 9.35749 140.507 2 997 0 0 9.20000 140.243 TS 35 994 2 286
1996353N05151 1996 122 WP MM FERN 1996-12-22 18:00:00 TS 9.13333 140.433 35 996 tokyo main 1216 1216 OO_O__________ jtwc_wp WP421996 8.80000 140.800 40 0 9.40000 140.400 3 35 996 0 9 120 120 0 9.20000 140.100 TS 35 994 2 283
1996353N05151 1996 122 WP MM FERN 1996-12-22 21:00:00 TS 9.15498 140.327 main 1222 1222 PP_P__________ WP421996 8.80750 140.700 37 0 9.45744 140.288 3 35 996 0 9 120 120 9.19999 139.993 TS 35 994 2 281
1996353N05151 1996 122 WP MM FERN 1996-12-23 00:00:00 TS 9.16923 140.246 35 996 tokyo main 1217 1213 OOOO__________ jtwc_wp WP421996 8.80000 140.600 35 0 9.50000 140.100 3 35 996 0 9 120 120 0 9.20000 140.800 1 29 998 9.20000 139.900 TS 35 994 2 281
1996353N05151 1996 122 WP MM FERN 1996-12-23 03:00:00 TS 9.20039 140.098 main 1213 1209 PPPP__________ WP421996 8.80749 140.508 35 0 9.51512 139.743 3 35 996 0 9 120 120 9.35754 140.585 1 29 996 9.20000 139.800 TS 35 994 3 282
1996353N05151 1996 122 WP MM FERN 1996-12-23 06:00:00 TS 9.23333 139.947 35 996 tokyo main 1205 1205 OOOO__________ jtwc_wp WP421996 8.80000 140.400 35 0 9.50000 139.400 3 35 996 0 9 120 120 0 9.50000 140.400 1 29 995 9.20000 139.700 TS 35 994 3 284
1996353N05151 1996 122 WP MM FERN 1996-12-23 09:00:00 TS 9.26122 139.848 main 1211 1207 PPPP__________ WP421996 8.76498 140.273 35 0 9.46494 139.263 3 35 996 0 9 120 120 9.61496 140.257 1 29 995 9.20000 139.600 TS 35 994 2 274
1996353N05151 1996 122 WP MM FERN 1996-12-23 12:00:00 TS 9.25000 139.725 35 996 tokyo main 1207 1193 OOOO__________ jtwc_wp WP421996 8.70000 140.100 35 0 9.40000 139.200 3 35 996 0 9 120 120 0 9.70000 140.100 1 29 995 9.20000 139.500 TS 35 994 3 261
1996353N05151 1996 122 WP MM FERN 1996-12-23 15:00:00 TS 9.21438 139.554 main 1193 1185 PPPP__________ WP421996 8.59249 139.872 37 0 9.30750 139.085 3 37 995 0 9 120 120 9.75753 139.857 1 29 995 9.20000 139.400 TS 37 993 4 258
1996353N05151 1996 122 WP MM FERN 1996-12-23 18:00:00 TS 9.17500 139.375 40 994 tokyo main 1185 1178 OOOO__________ jtwc_wp WP421996 8.50000 139.600 40 0 9.20000 139.000 3 40 994 0 9 120 120 0 9.80000 139.600 1 29 995 9.20000 139.300 TS 40 992 3 262
1996353N05151 1996 122 WP MM FERN 1996-12-23 21:00:00 TS 9.17000 139.219 main 1178 1175 PPPP__________ WP421996 8.47754 139.285 42 0 9.09249 139.008 3 40 994 0 9 120 120 9.90998 139.385 1 31 993 9.20000 139.200 TS 40 992 3 265
1996353N05151 1996 122 WP MM FERN 1996-12-24 00:00:00 TS 9.15000 139.075 40 994 tokyo main 1175 1157 OOOO__________ jtwc_wp WP421996 8.50000 139.000 45 0 9.00000 139.000 3 40 994 0 9 120 120 0 9.90000 139.200 2 34 992 9.20000 139.100 TS 40 992 3 249
1996353N05151 1996 122 WP MM FERN 1996-12-24 03:00:00 TS 9.06437 138.932 main 1157 1143 PPPP__________ WP421996 8.53497 138.820 47 0 8.93501 138.872 3 40 993 0 9 120 120 9.58749 139.035 2 36 991 9.20000 139.000 TS 42 991 3 237
1996353N05151 1996 122 WP MM FERN 1996-12-24 06:00:00 TS 8.97500 138.800 40 992 tokyo main 1143 1129 OOOO__________ jtwc_wp WP421996 8.60000 138.700 50 0 8.90000 138.700 3 40 992 0 9 120 120 0 9.20000 138.900 2 38 990 9.20000 138.900 TS 45 990 3 241
1996353N05151 1996 122 WP MM FERN 1996-12-24 09:00:00 TS 8.92937 138.686 main 1129 1125 PPPP__________ WP421996 8.69249 138.592 52 0 8.88500 138.542 3 45 990 0 9 130 130 8.93998 138.808 2 38 990 9.20000 138.800 TS 47 987 2 257
1996353N05151 1996 122 WP MM FERN 1996-12-24 12:00:00 TS 8.92500 138.575 50 988 tokyo main 1125 1122 OOOO__________ jtwc_wp WP421996 8.80000 138.500 55 0 8.90000 138.400 4 50 988 0 9 140 140 0 8.80000 138.700 2 38 990 9.20000 138.700 STS 50 985 2 276
1996353N05151 1996 122 WP MM FERN 1996-12-24 15:00:00 TS 8.95438 138.444 main 1130 1127 PPPP__________ WP421996 8.90000 138.393 55 0 8.92750 138.285 4 50 988 0 9 140 140 8.79753 138.500 2 38 989 9.19250 138.600 STS 50 985 3 292
1996353N05151 1996 122 WP MM FERN 1996-12-24 18:00:00 TS 9.02500 138.325 50 988 tokyo main 1127 1127 OOOO__________ jtwc_wp WP421996 9.00000 138.300 55 0 9.00000 138.200 4 50 988 0 9 140 140 0 8.90000 138.300 2 38 988 9.20000 138.500 STS 50 985 3 311
1996353N05151 1996 122 WP MM FERN 1996-12-24 21:00:00 TS 9.12624 138.243 main 1135 1135 PPPP__________ WP421996 9.10000 138.235 55 0 9.11999 138.150 4 50 988 0 9 170 170 9.04997 138.193 2 43 986 9.23500 138.393 STS 50 985 3 327
1996353N05151 1996 122 WP MM FERN 1996-12-25 00:00:00 TS 9.25000 138.175 50 988 tokyo main 1156 1154 OOOO__________ jtwc_wp WP421996 9.20000 138.200 55 0 9.30000 138.100 4 50 988 0 9 200 200 0 9.20000 138.100 3 48 985 9.30000 138.300 STS 50 985 3 327
1996353N05151 1996 122 WP MM FERN 1996-12-25 03:00:00 TS 9.36563 138.087 main 1165 1162 PPPP__________ WP421996 9.28500 138.185 55 0 9.55001 137.993 4 50 986 0 9 200 200 9.24252 137.935 3 48 985 9.38500 138.235 STS 50 985 3 329
1996353N05151 1996 122 WP MM FERN 1996-12-25 06:00:00 TS 9.50000 138.025 50 985 tokyo main 1173 1173 OOOO__________ jtwc_wp WP421996 9.40000 138.200 55 0 9.80000 137.900 4 50 985 0 9 200 200 0 9.30000 137.800 3 48 985 9.50000 138.200 STS 50 985 3 347
1996353N05151 1996 122 WP MM FERN 1996-12-25 09:00:00 TS 9.66375 138.019 main 1195 1195 PPPP__________ WP421996 9.59250 138.242 57 0 9.95749 137.877 4 50 985 0 9 200 200 9.46999 137.770 3 48 985 9.63500 138.185 STS 50 985 4 0
1996353N05151 1996 122 WP MM FERN 1996-12-25 12:00:00 TS 9.85000 138.050 50 985 tokyo main 1219 1219 OOOO__________ jtwc_wp WP421996 9.80000 138.300 60 0 10.1000 137.900 4 50 985 0 9 200 200 0 9.70000 137.800 3 48 985 9.80000 138.200 STS 50 985 4 9
1996353N05151 1996 122 WP MM FERN 1996-12-25 15:00:00 TS 10.0462 138.085 main 1230 1230 PPPP__________ WP421996 9.94250 138.350 62 0 10.3000 137.920 4 50 985 0 9 200 200 9.94999 137.828 3 48 985 9.99250 138.242 STS 52 982 4 13
1996353N05151 1996 122 WP MM FERN 1996-12-25 18:00:00 TS 10.2500 138.150 50 985 tokyo main 1265 1254 OOOO__________ jtwc_wp WP421996 10.1000 138.400 65 1 10.5000 138.000 4 50 985 0 9 200 200 0 10.2000 137.900 3 48 985 10.2000 138.300 STS 55 980 4 24
1996353N05151 1996 122 WP MM FERN 1996-12-25 21:00:00 TS 10.4331 138.259 main 1279 1279 PPPP__________ WP421996 10.3200 138.443 67 1 10.6201 138.207 4 50 985 0 9 200 200 10.4000 138.042 3 48 985 10.3925 138.343 STS 55 980 5 29
1996353N05151 1996 122 WP MM FERN 1996-12-26 00:00:00 TS 10.6500 138.375 50 985 tokyo main 1314 1314 OOOO__________ jtwc_wp WP421996 10.6000 138.500 70 1 10.8000 138.400 4 50 985 0 9 200 200 0 10.6000 138.200 3 48 985 10.6000 138.400 STS 55 980 6 21
1996353N05151 1996 122 WP MM FERN 1996-12-26 03:00:00 TS 10.9569 138.459 main 1349 1349 PPPP__________ WP421996 10.9575 138.600 72 1 11.1850 138.430 4 52 982 0 9 250 250 10.8425 138.308 3 48 985 10.8425 138.500 STS 55 980 6 14
1996353N05151 1996 122 WP MM FERN 1996-12-26 06:00:00 TS 11.2750 138.525 55 980 tokyo main 1365 1365 OOOO__________ jtwc_wp WP421996 11.3000 138.700 75 1 11.6000 138.400 4 55 980 9 40 40 9 300 300 0 11.1000 138.400 3 48 985 11.1000 138.600 STS 55 980 6 11
1996353N05151 1996 122 WP MM FERN 1996-12-26 09:00:00 TS 11.5294 138.579 main 1380 1380 PPPP__________ WP421996 11.5300 138.765 77 1 11.8875 138.393 4 57 977 9 45 45 9 325 325 11.3500 138.500 3 48 985 11.3500 138.658 STS 57 977 5 11
1996353N05151 1996 122 WP MM FERN 1996-12-26 12:00:00 TS 11.7500 138.625 60 975 tokyo main 1387 1387 OOOO__________ jtwc_wp WP421996 11.7000 138.800 80 1 12.1000 138.400 4 60 975 9 50 50 9 350 350 0 11.6000 138.600 3 48 985 11.6000 138.700 STS 60 975 4 13
1996353N05151 1996 122 WP MM FERN 1996-12-26 15:00:00 TS 11.9500 138.675 main 1402 1400 PPPP__________ WP421996 11.8500 138.808 80 1 12.2575 138.428 4 60 975 9 50 50 9 350 350 11.8425 138.708 3 53 982 11.8500 138.757 STS 60 975 4 13
1996353N05151 1996 122 WP MM FERN 1996-12-26 18:00:00 TS 12.1500 138.725 60 975 tokyo main 1407 1404 OOOO__________ jtwc_wp WP421996 12.0000 138.800 80 1 12.4000 138.500 4 60 975 9 50 50 9 350 350 0 12.1000 138.800 3 58 980 12.1000 138.800 STS 60 975 4 13
1996353N05151 1996 122 WP MM FERN 1996-12-26 21:00:00 TS 12.3781 138.777 main 1422 1422 PPPP__________ WP421996 12.1775 138.807 80 1 12.5925 138.642 4 60 975 9 55 55 9 362 362 12.3925 138.858 3 58 980 12.3500 138.800 STS 60 975 5 11
1996353N05151 1996 122 WP MM FERN 1996-12-27 00:00:00 TS 12.6250 138.825 60 975 tokyo main 1427 1427 OOOO__________ jtwc_wp WP421996 12.4000 138.800 80 1 12.8000 138.800 4 60 975 9 60 60 9 375 375 0 12.7000 138.900 3 58 980 12.6000 138.800 STS 60 975 5 10
1996353N05151 1996 122 WP MM FERN 1996-12-27 03:00:00 TS 12.8819 138.866 main 1441 1441 PPPP__________ WP421996 12.6850 138.743 77 1 12.9850 138.915 4 60 975 9 60 60 9 375 375 13.0075 138.957 3 58 980 12.8500 138.850 STS 57 977 5 7
1996353N05151 1996 122 WP MM FERN 1996-12-27 06:00:00 TS 13.1500 138.900 60 975 tokyo main 1446 1446 OOOO__________ jtwc_wp WP421996 13.0000 138.700 75 1 13.2000 139.000 4 60 975 9 60 60 9 375 375 0 13.3000 139.000 3 58 980 13.1000 138.900 STS 55 980 5 6
1996353N05151 1996 122 WP MM FERN 1996-12-27 09:00:00 TS 13.4212 138.919 main 1449 1449 PPPP__________ WP421996 13.2925 138.720 75 1 13.4925 139.050 4 60 975 9 60 60 9 375 375 13.5575 139.000 3 58 980 13.3425 138.908 STS 55 980 6 5
1996353N05151 1996 122 WP MM FERN 1996-12-27 12:00:00 TS 13.7000 138.950 60 975 tokyo main 1465 1465 OOOO__________ jtwc_wp WP421996 13.6000 138.800 75 1 13.8000 139.100 4 60 975 9 60 60 9 375 375 0 13.8000 139.000 3 58 980 13.6000 138.900 STS 55 980 6 8
1996353N05151 1996 122 WP MM FERN 1996-12-27 15:00:00 TS 13.9931 139.001 main 1472 1472 PPPP__________ WP421996 13.9575 138.913 75 1 14.0650 139.170 4 60 975 9 60 60 9 375 375 14.0500 139.042 3 58 980 13.9000 138.878 STS 55 980 6 14
1996353N05151 1996 122 WP MM FERN 1996-12-27 18:00:00 TS 14.2750 139.100 60 975 tokyo main 1490 1490 OOOO__________ jtwc_wp WP421996 14.3000 139.100 75 1 14.3000 139.300 4 60 975 9 60 60 9 375 375 0 14.3000 139.100 3 58 980 14.2000 138.900 STS 55 980 6 25
1996353N05151 1996 122 WP MM FERN 1996-12-27 21:00:00 TS 14.5087 139.245 main 1504 1504 PPPP__________ WP421996 14.5274 139.355 75 1 14.5151 139.535 4 60 977 9 60 60 9 337 337 14.5499 139.098 3 58 980 14.4424 138.990 STS 52 982 6 37
1996353N05151 1996 122 WP MM FERN 1996-12-28 00:00:00 TS 14.7500 139.475 60 980 tokyo main 1541 1541 OOOO__________ jtwc_wp WP421996 14.8000 139.700 75 1 14.7000 139.800 4 60 980 9 60 60 9 300 300 0 14.8000 139.200 3 58 980 14.7000 139.200 STS 50 985 8 45
1996353N05151 1996 122 WP MM FERN 1996-12-28 03:00:00 TS 15.0437 139.793 main 1577 1577 PPPP__________ WP421996 15.3075 140.120 75 1 14.7973 139.970 4 57 982 9 50 50 9 275 275 15.0350 139.533 3 58 980 15.0350 139.548 STS 50 985 9 48
1996353N05151 1996 122 WP MM FERN 1996-12-28 06:00:00 TS 15.3750 140.200 55 985 tokyo main 1627 1627 OOOO__________ jtwc_wp WP421996 15.8000 140.600 75 1 15.0000 140.200 4 55 985 9 40 40 9 250 250 0 15.3000 140.000 3 58 980 15.4000 140.000 STS 50 985 11 51
1996353N05151 1996 122 WP MM FERN 1996-12-28 09:00:00 TS 15.7243 140.663 main 1686 1686 PPPP__________ WP421996 16.0299 141.093 75 1 15.5051 140.605 4 52 985 9 9 235 235 15.6199 140.478 3 53 982 15.7424 140.478 STS 50 985 12 52
1996353N05151 1996 122 WP MM FERN 1996-12-28 12:00:00 TS 16.1000 141.175 50 985 tokyo main 1748 1748 OOOO__________ jtwc_wp WP421996 16.2000 141.600 75 1 16.1000 141.100 4 50 985 0 9 220 220 0 16.0000 141.000 3 48 985 16.1000 141.000 STS 50 985 13 52
1996353N05151 1996 122 WP MM FERN 1996-12-28 15:00:00 TS 16.5055 141.689 main 1810 1810 PPPP__________ WP421996 16.5074 142.100 75 1 16.5799 141.593 4 50 985 0 9 235 235 16.4424 141.535 3 48 987 16.4923 141.528 STS 50 985 13 52
1996353N05151 1996 122 WP MM FERN 1996-12-28 18:00:00 TS 16.9000 142.225 50 985 tokyo main 1872 1872 OOOO__________ jtwc_wp WP421996 16.8000 142.600 75 1 17.0000 142.100 4 50 985 0 9 250 250 0 16.9000 142.100 3 48 990 16.9000 142.100 STS 50 985 13 53
1996353N05151 1996 122 WP MM FERN 1996-12-28 21:00:00 TS 17.2586 142.743 main 1925 1913 PPPP__________ WP421996 16.9852 143.100 67 1 17.3645 142.556 4 47 987 0 9 250 250 17.3072 142.678 3 48 990 17.3074 142.728 STS 47 987 13 56
1996353N05151 1996 122 WP MM FERN 1996-12-29 00:00:00 TS 17.6143 143.314 45 990 tokyo main 1916 1899 OOOO__________ jtwc_wp WP421996 17.1000 143.600 60 0 17.7000 143.100 3 45 990 0 9 250 250 0 17.7000 143.300 3 48 990 17.7000 143.400 TS 45 990 14 57
1996353N05151 1996 122 WP MM FERN 1996-12-29 03:00:00 TS 18.0093 143.978 main 1904 1890 _PPP__________ WP421996 -1 18.0502 143.855 3 45 991 0 9 250 250 18.1222 143.970 3 43 992 18.0647 144.078 TS 42 991 16 59
1996353N05151 1996 122 WP MM FERN 1996-12-29 06:00:00 TS 18.4333 144.733 45 992 tokyo main 1894 1880 _OOO__________ -1 18.4000 144.700 3 45 992 0 9 250 250 0 18.5000 144.700 2 38 995 18.4000 144.800 TS 40 992 16 62
1996353N05151 1996 122 WP MM FERN 1996-12-29 09:00:00 TS 18.7678 145.498 main 1880 1874 _PPP__________ -1 18.7867 145.470 3 45 992 0 9 250 250 18.7869 145.455 2 38 995 18.7296 145.570 TS 37 993 16 68
1996353N05151 1996 122 WP MM FERN 1996-12-29 12:00:00 TS 19.0364 146.327 45 992 tokyo main 1884 1876 _OOO__________ -1 19.1000 146.300 3 45 992 0 9 250 250 0 19.0000 146.300 2 38 995 19.0000 146.400 TS 35 994 17 76
1996353N05151 1996 122 WP MM FERN 1996-12-29 15:00:00 TS 19.1847 147.280 main 1898 1898 _PPP__________ -1 19.2073 147.264 3 42 993 0 9 225 225 19.1653 147.293 2 38 995 19.1785 147.285 TS 32 997 19 82
1996353N05151 1996 122 WP MM FERN 1996-12-29 18:00:00 TS 19.3000 148.289 40 994 tokyo main 1927 1927 _OOO__________ -1 19.3000 148.300 3 40 994 0 9 200 200 0 19.3000 148.300 2 38 995 19.3000 148.200 TD 30 1000 18 80
1996353N05151 1996 122 WP MM FERN 1996-12-29 21:00:00 TS 19.4893 149.195 main 1947 1947 _PP___________ -1 19.5369 149.224 3 996 0 9 19.4417 149.165 2 33 996 TD 19 76
1996353N05151 1996 122 WP MM FERN 1996-12-30 00:00:00 MX 19.7714 150.229 998 tokyo main 1965 1965 _OO___________ -1 19.9000 150.400 6 998 0 0 0 19.6000 150.000 1 29 998 25 73
1996353N05151 1996 122 WP MM FERN 1996-12-30 03:00:00 MX 20.2226 151.702 main 2006 2006 _PP___________ -1 20.4383 152.112 6 999 0 0 19.7912 150.882 1 26 999 32 74
1996353N05151 1996 122 WP MM FERN 1996-12-30 06:00:00 MX 20.6750 153.525 1000 tokyo main 2062 2062 _OO___________ -1 20.9000 154.100 6 1000 0 0 0 20.0000 151.800 1 23 1000 42 79
1996353N05151 1996 122 WP MM FERN 1996-12-30 09:00:00 ET 21.0528 156.072 main 2194 2194 _P____________ -1 21.0528 156.072 6 1002 0 0 1 42 86
1996353N05151 1996 122 WP MM FERN 1996-12-30 12:00:00 ET 21.0000 158.000 1004 tokyo main 2335 _O____________ -1 21.0000 158.000 6 1004 0 0 0 36 92

デジタル台風データ・検索

IBTrACS Databaseについて

本データベースは、米国NOAAが公開する1842年以降の世界の熱帯低気圧のベストトラックデータアーカイブInternational Best Track Archive for Climate Stewardship (IBTrACS)を、ウェブで閲覧しやすい形式に変換したものです。

最終更新日:2021-12-01